createdAt,value
2019-02-17T00:00:44.369Z,47.00
2019-02-17T00:03:14.747Z,63.57
2019-02-17T00:05:45.086Z,39.83
2019-02-17T00:08:15.437Z,37.47
2019-02-17T00:10:45.791Z,39.33
2019-02-17T00:13:16.135Z,39.43
2019-02-17T00:15:46.471Z,38.60
2019-02-17T00:18:16.833Z,39.83
2019-02-17T00:20:47.177Z,35.67
2019-02-17T00:23:17.529Z,37.97
2019-02-17T00:25:48.054Z,38.30
2019-02-17T00:28:18.440Z,35.97
2019-02-17T00:30:50.235Z,36.07
2019-02-17T00:33:20.736Z,37.47
2019-02-17T00:35:51.079Z,37.90
2019-02-17T00:38:21.426Z,38.30
2019-02-17T00:40:51.754Z,39.10
2019-02-17T00:43:22.116Z,38.07
2019-02-17T00:45:52.439Z,37.73
2019-02-17T00:48:22.793Z,35.63
2019-02-17T00:50:53.198Z,36.77
2019-02-17T00:53:23.549Z,36.50
2019-02-17T00:55:53.930Z,37.67
2019-02-17T00:58:24.297Z,36.97
2019-02-17T01:00:56.142Z,38.87
2019-02-17T01:03:26.507Z,37.63
2019-02-17T01:05:56.853Z,35.73
2019-02-17T01:08:27.233Z,37.30
2019-02-17T01:10:57.562Z,36.60
2019-02-17T01:13:27.930Z,36.87
2019-02-17T01:15:58.280Z,36.30
2019-02-17T01:18:28.636Z,38.90
2019-02-17T01:20:58.956Z,36.70
2019-02-17T01:23:29.413Z,40.10
2019-02-17T01:25:59.725Z,39.93
2019-02-17T01:28:30.094Z,43.47
2019-02-17T01:31:00.424Z,47.77
2019-02-17T01:33:30.798Z,47.70
2019-02-17T01:36:01.194Z,41.40
2019-02-17T01:38:31.555Z,43.73
2019-02-17T01:41:01.871Z,48.37
2019-02-17T01:43:32.238Z,50.47
2019-02-17T01:46:02.595Z,45.10
2019-02-17T01:48:38.158Z,45.40
2019-02-17T01:51:08.496Z,49.97
2019-02-17T01:53:38.874Z,48.30
2019-02-17T01:56:09.194Z,45.93
2019-02-17T01:58:39.563Z,46.87
2019-02-17T02:01:10.007Z,50.90
2019-02-17T02:03:40.419Z,49.80
2019-02-17T02:06:11.150Z,44.67
2019-02-17T02:08:41.489Z,48.83
2019-02-17T02:11:12.271Z,54.35
2019-02-17T02:13:42.714Z,54.07
2019-02-17T02:16:13.186Z,50.60
2019-02-17T02:18:43.684Z,49.33
2019-02-17T02:21:14.704Z,47.30
2019-02-17T02:23:45.376Z,48.90
2019-02-17T02:26:15.804Z,50.93
2019-02-17T02:28:46.230Z,51.63
2019-02-17T02:31:16.962Z,53.00
2019-02-17T02:33:47.505Z,52.37
2019-02-17T02:36:18.208Z,51.33
2019-02-17T02:38:49.290Z,52.43
2019-02-17T02:41:19.866Z,50.83
2019-02-17T02:43:52.220Z,51.90
2019-02-17T02:46:22.682Z,52.83
2019-02-17T02:48:53.165Z,54.23
2019-02-17T02:51:25.531Z,51.63
2019-02-17T02:53:55.516Z,54.43
2019-02-17T02:56:25.973Z,51.37
2019-02-17T02:58:56.352Z,51.17
2019-02-17T03:01:26.713Z,47.53
2019-02-17T03:03:57.038Z,49.53
2019-02-17T03:06:49.089Z,49.20
2019-02-17T03:09:19.555Z,51.63
2019-02-17T03:11:49.911Z,50.67
2019-02-17T03:14:21.439Z,51.63
2019-02-17T03:16:51.796Z,51.30
2019-02-17T03:19:23.452Z,53.67
2019-02-17T03:21:53.783Z,51.47
2019-02-17T03:24:24.106Z,48.67
2019-02-17T03:26:54.471Z,52.03
2019-02-17T03:29:24.805Z,55.33
2019-02-17T03:31:55.161Z,54.67
2019-02-17T03:34:25.487Z,53.10
2019-02-17T03:36:55.826Z,50.83
2019-02-17T03:39:26.170Z,48.10
2019-02-17T03:41:56.942Z,48.40
2019-02-17T03:44:27.269Z,47.27
2019-02-17T03:46:57.614Z,46.03
2019-02-17T03:49:27.930Z,49.40
2019-02-17T03:51:58.291Z,50.07
2019-02-17T03:54:28.620Z,49.87
2019-02-17T03:56:59.047Z,47.53
2019-02-17T03:59:29.370Z,53.30
2019-02-17T04:01:59.721Z,51.60
2019-02-17T04:04:30.069Z,55.67
2019-02-17T04:07:00.414Z,57.17
2019-02-17T04:09:30.836Z,55.80
2019-02-17T04:12:01.239Z,56.27
2019-02-17T04:14:31.649Z,54.87
2019-02-17T04:17:02.098Z,54.30
2019-02-17T04:19:32.575Z,57.43
2019-02-17T04:22:02.958Z,54.57
2019-02-17T04:24:33.331Z,53.50
2019-02-17T04:27:03.758Z,52.10
2019-02-17T04:29:34.146Z,51.33
2019-02-17T04:32:08.170Z,51.40
2019-02-17T04:34:38.641Z,50.03
2019-02-17T04:37:08.950Z,51.00
2019-02-17T04:39:39.308Z,50.70
2019-02-17T04:42:10.034Z,51.17
2019-02-17T04:44:40.433Z,50.20
2019-02-17T04:47:10.748Z,51.00
2019-02-17T04:49:41.118Z,48.53
2019-02-17T04:52:11.442Z,48.33
2019-02-17T04:54:41.804Z,46.27
2019-02-17T04:57:12.168Z,48.27
2019-02-17T04:59:42.530Z,49.97
2019-02-17T05:02:13.338Z,49.73
2019-02-17T05:04:43.729Z,50.08
2019-02-17T05:07:14.742Z,47.90
2019-02-17T05:09:45.087Z,48.65
2019-02-17T05:12:15.899Z,41.83
2019-02-17T05:14:46.555Z,42.00
2019-02-17T05:17:17.489Z,36.97
2019-02-17T05:19:48.237Z,38.25
2019-02-17T05:22:18.874Z,37.83
2019-02-17T05:24:49.486Z,37.50
2019-02-17T05:27:20.360Z,38.43
2019-02-17T05:29:51.340Z,39.90
2019-02-17T05:32:21.802Z,36.47
2019-02-17T05:34:52.545Z,38.90
2019-02-17T05:37:23.126Z,42.50
2019-02-17T05:39:53.820Z,46.90
2019-02-17T05:42:24.341Z,43.90
2019-02-17T05:44:55.765Z,44.70
2019-02-17T05:47:26.117Z,44.87
2019-02-17T05:49:56.512Z,43.17
2019-02-17T05:52:27.045Z,44.88
2019-02-17T05:54:57.414Z,44.50
2019-02-17T05:57:29.275Z,45.30
2019-02-17T06:00:00.894Z,42.77
2019-02-17T06:02:31.250Z,44.13
2019-02-17T06:05:01.680Z,43.30
2019-02-17T06:07:32.028Z,41.90
2019-02-17T06:10:02.387Z,40.73
2019-02-17T06:12:32.700Z,42.70
2019-02-17T06:15:03.119Z,39.20
2019-02-17T06:17:33.453Z,30.13
2019-02-17T06:20:03.798Z,32.30
2019-02-17T06:22:34.154Z,31.77
2019-02-17T06:25:05.505Z,29.50
2019-02-17T06:27:35.867Z,30.20
2019-02-17T06:30:06.632Z,27.47
2019-02-17T06:32:36.961Z,24.93
2019-02-17T06:35:07.835Z,28.57
2019-02-17T06:37:38.152Z,29.33
2019-02-17T06:40:08.649Z,30.13
2019-02-17T06:42:39.004Z,32.50
2019-02-17T06:45:09.671Z,31.20
2019-02-17T06:47:39.985Z,31.00
2019-02-17T06:50:10.788Z,33.90
2019-02-17T06:52:41.112Z,35.07
2019-02-17T06:55:29.459Z,32.23
2019-02-17T06:57:59.796Z,32.27
2019-02-17T07:00:35.850Z,35.30
2019-02-17T07:03:06.166Z,34.70
2019-02-17T07:05:46.719Z,35.67
2019-02-17T07:08:17.062Z,35.97
2019-02-17T07:10:47.469Z,34.23
2019-02-17T07:13:17.891Z,33.87
2019-02-17T07:15:48.236Z,30.73
2019-02-17T07:18:18.598Z,31.17
2019-02-17T07:20:48.984Z,25.27
2019-02-17T07:23:19.348Z,22.93
2019-02-17T07:25:49.662Z,28.23
2019-02-17T07:28:20.023Z,25.20
2019-02-17T07:30:50.350Z,25.20
2019-02-17T07:33:20.704Z,22.77
2019-02-17T07:35:51.090Z,25.33
2019-02-17T07:38:21.490Z,26.27
2019-02-17T07:40:51.819Z,27.90
2019-02-17T07:43:23.191Z,26.80
2019-02-17T07:45:53.543Z,26.03
2019-02-17T07:48:23.866Z,27.37
2019-02-17T07:50:56.845Z,28.33
2019-02-17T07:53:28.347Z,27.97
2019-02-17T07:55:58.713Z,25.57
2019-02-17T07:58:29.038Z,24.23
2019-02-17T08:00:59.532Z,24.63
2019-02-17T08:03:29.865Z,32.33
2019-02-17T08:06:00.267Z,39.97
2019-02-17T08:08:30.901Z,34.70
2019-02-17T08:11:04.127Z,29.77
2019-02-17T08:13:33.425Z,16.63
2019-02-17T08:16:03.887Z,14.87
2019-02-17T08:18:34.241Z,11.73
2019-02-17T08:21:04.576Z,11.67
2019-02-17T08:23:35.008Z,13.90
2019-02-17T08:26:05.437Z,10.83
2019-02-17T08:28:35.804Z,13.03
2019-02-17T08:31:07.702Z,11.50
2019-02-17T08:33:38.575Z,12.63
2019-02-17T08:36:09.018Z,12.83
2019-02-17T08:38:39.758Z,11.97
2019-02-17T08:41:10.357Z,11.97
2019-02-17T08:43:40.922Z,11.08
2019-02-17T08:46:11.278Z,10.30
2019-02-17T08:48:41.684Z,10.23
2019-02-17T08:51:12.775Z,12.80
2019-02-17T08:53:43.210Z,11.60
2019-02-17T08:56:13.953Z,10.53
2019-02-17T08:58:44.303Z,11.68
2019-02-17T09:01:14.675Z,10.07
2019-02-17T09:03:45.082Z,10.37
2019-02-17T09:06:15.474Z,10.40
2019-02-17T09:08:45.783Z,9.80
2019-02-17T09:11:16.223Z,10.00
2019-02-17T09:13:46.930Z,9.80
2019-02-17T09:16:17.289Z,10.10
2019-02-17T09:18:48.000Z,10.53
2019-02-17T09:21:18.476Z,9.87
2019-02-17T09:23:48.808Z,9.87
2019-02-17T09:26:19.164Z,9.97
2019-02-17T09:28:49.530Z,10.93
2019-02-17T09:31:19.916Z,10.67
2019-02-17T09:33:50.325Z,10.63
2019-02-17T09:36:20.684Z,11.93
2019-02-17T09:38:51.065Z,14.83
2019-02-17T09:41:21.386Z,9.70
2019-02-17T09:43:51.773Z,8.97
2019-02-17T09:46:22.102Z,9.07
2019-02-17T09:48:52.465Z,9.37
2019-02-17T09:51:24.060Z,9.77
2019-02-17T09:53:54.459Z,10.10
2019-02-17T09:56:24.851Z,14.17
2019-02-17T09:58:55.200Z,24.73
2019-02-17T10:01:25.535Z,12.90
2019-02-17T10:03:55.933Z,11.10
2019-02-17T10:06:26.262Z,12.20
2019-02-17T10:08:56.681Z,12.20
2019-02-17T10:11:27.024Z,12.00
2019-02-17T10:13:57.381Z,12.13
2019-02-17T10:16:27.778Z,11.47
2019-02-17T10:18:58.147Z,12.00
2019-02-17T10:21:28.537Z,11.90
2019-02-17T10:23:59.099Z,12.37
2019-02-17T10:26:29.527Z,11.87
2019-02-17T10:28:59.874Z,12.07
2019-02-17T10:31:30.198Z,12.37
2019-02-17T10:34:00.659Z,13.00
2019-02-17T10:36:31.009Z,12.60
2019-02-17T10:39:02.435Z,12.90
2019-02-17T10:41:34.379Z,12.93
2019-02-17T10:44:04.719Z,12.50
2019-02-17T10:46:35.102Z,12.70
2019-02-17T10:49:05.471Z,11.60
2019-02-17T10:51:35.808Z,11.47
2019-02-17T10:54:06.189Z,11.83
2019-02-17T10:56:36.522Z,11.33
2019-02-17T10:59:06.895Z,10.60
2019-02-17T11:01:37.419Z,10.30
2019-02-17T11:04:10.119Z,10.23
2019-02-17T11:06:43.074Z,10.20
2019-02-17T11:09:20.227Z,11.03
2019-02-17T11:11:51.238Z,10.10
2019-02-17T11:14:21.730Z,10.50
2019-02-17T11:16:52.799Z,10.17
2019-02-17T11:19:23.176Z,12.23
2019-02-17T11:21:53.827Z,11.07
2019-02-17T11:24:24.716Z,10.27
2019-02-17T11:26:55.181Z,10.67
2019-02-17T11:29:25.549Z,11.53
2019-02-17T11:31:55.936Z,10.80
2019-02-17T11:34:26.401Z,10.00
2019-02-17T11:36:56.682Z,11.07
2019-02-17T11:39:27.031Z,9.80
2019-02-17T11:41:57.366Z,9.97
2019-02-17T11:44:27.735Z,9.80
2019-02-17T11:46:58.090Z,10.57
2019-02-17T11:49:28.837Z,9.17
2019-02-17T11:51:59.387Z,9.63
2019-02-17T11:54:30.915Z,8.37
2019-02-17T11:57:01.241Z,8.10
2019-02-17T11:59:32.277Z,8.30
2019-02-17T12:02:02.701Z,7.07
2019-02-17T12:04:33.098Z,11.10
2019-02-17T12:07:03.444Z,10.77
2019-02-17T12:09:33.820Z,11.55
2019-02-17T12:12:04.189Z,10.93
2019-02-17T12:14:35.276Z,9.80
2019-02-17T12:17:05.623Z,10.45
2019-02-17T12:19:36.057Z,10.30
2019-02-17T12:22:29.074Z,10.00
2019-02-17T12:25:04.718Z,9.45
2019-02-17T12:27:44.755Z,9.70
2019-02-17T12:30:18.986Z,9.28
2019-02-17T12:32:49.317Z,8.67
2019-02-17T12:35:19.712Z,9.35
2019-02-17T12:37:50.110Z,8.98
2019-02-17T12:40:20.902Z,9.30
2019-02-17T12:42:51.265Z,8.45
2019-02-17T12:45:22.696Z,8.55
2019-02-17T12:47:58.170Z,9.18
2019-02-17T12:50:25.022Z,8.80
2019-02-17T12:52:55.351Z,8.95
2019-02-17T12:55:25.727Z,8.10
2019-02-17T12:57:56.480Z,7.45
2019-02-17T13:00:27.176Z,8.05
2019-02-17T13:02:57.634Z,8.00
2019-02-17T13:05:28.410Z,7.60
2019-02-17T13:07:58.863Z,7.10
2019-02-17T13:10:29.235Z,7.47
2019-02-17T13:12:59.580Z,7.55
2019-02-17T13:15:30.193Z,7.62
2019-02-17T13:18:00.584Z,7.75
2019-02-17T13:20:31.419Z,7.86
2019-02-17T13:23:02.185Z,7.62
2019-02-17T13:25:32.972Z,7.55
2019-02-17T13:28:03.359Z,7.72
2019-02-17T13:30:33.749Z,8.53
2019-02-17T13:33:04.260Z,7.42
2019-02-17T13:35:34.618Z,7.28
2019-02-17T13:38:05.006Z,7.85
2019-02-17T13:40:35.368Z,6.80
2019-02-17T13:43:05.740Z,8.15
2019-02-17T13:45:36.380Z,7.45
2019-02-17T13:48:07.163Z,7.25
2019-02-17T13:50:37.582Z,7.63
2019-02-17T13:53:11.750Z,7.55
2019-02-17T13:55:40.479Z,7.20
2019-02-17T13:58:10.862Z,7.80
2019-02-17T14:00:41.283Z,8.45
2019-02-17T14:03:12.303Z,7.10
2019-02-17T14:05:42.738Z,7.00
2019-02-17T14:08:13.191Z,6.75
2019-02-17T14:10:43.691Z,6.67
2019-02-17T14:13:14.131Z,6.78
2019-02-17T14:15:44.486Z,7.73
2019-02-17T14:18:15.153Z,7.00
2019-02-17T14:20:45.580Z,6.83
2019-02-17T14:23:16.189Z,7.40
2019-02-17T14:25:46.603Z,7.67
2019-02-17T14:28:16.999Z,6.70
2019-02-17T14:30:48.604Z,7.07
2019-02-17T14:33:19.003Z,8.33
2019-02-17T14:35:49.775Z,7.30
2019-02-17T14:38:20.331Z,8.20
2019-02-17T14:40:51.916Z,7.78
2019-02-17T14:43:22.371Z,7.95
2019-02-17T14:45:53.029Z,8.00
2019-02-17T14:48:23.441Z,7.92
2019-02-17T14:50:55.021Z,8.58
2019-02-17T14:53:25.459Z,8.95
2019-02-17T14:55:55.819Z,8.40
2019-02-17T14:58:26.455Z,8.58
2019-02-17T15:00:58.014Z,9.28
2019-02-17T15:03:28.327Z,7.90
2019-02-17T15:05:58.757Z,7.17
2019-02-17T15:08:29.077Z,7.40
2019-02-17T15:10:59.430Z,7.40
2019-02-17T15:13:29.781Z,7.60
2019-02-17T15:16:00.129Z,7.75
2019-02-17T15:18:30.512Z,8.05
2019-02-17T15:21:00.872Z,8.13
2019-02-17T15:23:31.790Z,7.68
2019-02-17T15:26:02.153Z,6.12
2019-02-17T15:28:32.484Z,8.33
2019-02-17T15:31:02.844Z,9.78
2019-02-17T15:33:33.191Z,6.45
2019-02-17T15:36:04.533Z,7.03
2019-02-17T15:38:34.861Z,7.15
2019-02-17T15:41:05.742Z,9.35
2019-02-17T15:43:36.053Z,7.78
2019-02-17T15:46:06.450Z,6.67
2019-02-17T15:48:37.126Z,6.37
2019-02-17T15:51:07.482Z,8.10
2019-02-17T15:53:37.797Z,7.23
2019-02-17T15:56:08.136Z,7.80
2019-02-17T15:58:38.482Z,7.65
2019-02-17T16:01:08.935Z,7.53
2019-02-17T16:03:39.391Z,7.70
2019-02-17T16:06:09.765Z,26.63
2019-02-17T16:08:40.155Z,9.40
2019-02-17T16:11:10.613Z,7.83
2019-02-17T16:13:40.945Z,15.40
2019-02-17T16:16:11.295Z,16.93
2019-02-17T16:18:41.654Z,13.43
2019-02-17T16:21:12.046Z,12.37
2019-02-17T16:23:42.477Z,11.37
2019-02-17T16:26:13.937Z,9.97
2019-02-17T16:28:44.499Z,9.73
2019-02-17T16:31:14.825Z,9.13
2019-02-17T16:33:45.178Z,8.30
2019-02-17T16:36:15.519Z,8.53
2019-02-17T16:38:45.992Z,9.60
2019-02-17T16:41:16.411Z,10.07
2019-02-17T16:43:46.846Z,10.13
2019-02-17T16:46:17.212Z,10.50
2019-02-17T16:48:48.000Z,11.20
2019-02-17T16:51:19.055Z,10.27
2019-02-17T16:53:49.609Z,10.70
2019-02-17T16:56:20.839Z,9.47
2019-02-17T16:58:52.053Z,8.43
2019-02-17T17:01:22.711Z,8.00
2019-02-17T17:03:53.581Z,7.23
2019-02-17T17:06:23.998Z,7.37
2019-02-17T17:08:55.625Z,8.80
2019-02-17T17:11:26.006Z,9.20
2019-02-17T17:13:56.754Z,10.23
2019-02-17T17:16:27.782Z,9.50
2019-02-17T17:18:58.232Z,9.90
2019-02-17T17:21:28.644Z,10.10
2019-02-17T17:23:59.250Z,10.07
2019-02-17T17:26:29.634Z,12.53
2019-02-17T17:29:00.088Z,14.13
2019-02-17T17:31:31.356Z,13.50
2019-02-17T17:34:01.905Z,12.03
2019-02-17T17:36:32.355Z,12.37
2019-02-17T17:39:02.739Z,12.77
2019-02-17T17:41:34.268Z,13.70
2019-02-17T17:44:04.650Z,14.87
2019-02-17T17:46:35.989Z,16.93
2019-02-17T17:49:07.004Z,28.20
2019-02-17T17:51:37.334Z,21.40
2019-02-17T17:54:08.529Z,15.23
2019-02-17T17:56:38.874Z,14.10
2019-02-17T17:59:11.869Z,13.43
2019-02-17T18:01:42.219Z,13.07
2019-02-17T18:04:15.170Z,17.60
2019-02-17T18:06:45.550Z,14.33
2019-02-17T18:09:15.925Z,16.73
2019-02-17T18:11:46.265Z,17.37
2019-02-17T18:14:16.631Z,18.47
2019-02-17T18:16:47.039Z,23.03
2019-02-17T18:19:17.444Z,22.60
2019-02-17T18:21:47.847Z,24.13
2019-02-17T18:24:21.263Z,20.13
2019-02-17T18:26:51.616Z,23.33
2019-02-17T18:29:24.285Z,22.53
2019-02-17T18:31:54.618Z,23.60
2019-02-17T18:34:25.550Z,25.03
2019-02-17T18:36:55.897Z,20.47
2019-02-17T18:39:26.297Z,16.30
2019-02-17T18:41:56.633Z,17.47
2019-02-17T18:44:26.990Z,18.03
2019-02-17T18:46:57.345Z,16.83
2019-02-17T18:49:28.005Z,17.83
2019-02-17T18:51:59.054Z,16.80
2019-02-17T18:54:29.512Z,17.10
2019-02-17T18:57:08.063Z,17.83
2019-02-17T18:59:33.257Z,17.60
2019-02-17T19:02:04.510Z,17.23
2019-02-17T19:04:34.914Z,37.13
2019-02-17T19:07:05.262Z,22.80
2019-02-17T19:09:35.630Z,21.57
2019-02-17T19:12:05.964Z,30.37
2019-02-17T19:14:36.322Z,32.90
2019-02-17T19:17:06.666Z,30.10
2019-02-17T19:19:37.051Z,78.93
2019-02-17T19:22:07.382Z,25.30
2019-02-17T19:24:37.777Z,20.27
2019-02-17T19:27:08.119Z,16.77
2019-02-17T19:29:38.469Z,19.77
2019-02-17T19:32:08.818Z,18.60
2019-02-17T19:34:39.545Z,19.40
2019-02-17T19:37:11.693Z,21.20
2019-02-17T19:39:42.097Z,21.03
2019-02-17T19:42:12.480Z,19.37
2019-02-17T19:44:42.838Z,23.57
2019-02-17T19:47:13.173Z,21.10
2019-02-17T19:49:44.477Z,17.03
2019-02-17T19:52:14.863Z,17.73
2019-02-17T19:54:45.223Z,19.17
2019-02-17T19:57:15.636Z,23.37
2019-02-17T19:59:46.303Z,22.00
2019-02-17T20:02:18.251Z,25.97
2019-02-17T20:05:06.797Z,29.37
2019-02-17T20:07:37.478Z,25.37
2019-02-17T20:10:08.417Z,26.73
2019-02-17T20:12:38.755Z,22.05
2019-02-17T20:15:09.172Z,21.97
2019-02-17T20:17:39.633Z,23.25
2019-02-17T20:20:10.061Z,22.70
2019-02-17T20:22:40.401Z,23.57
2019-02-17T20:25:10.957Z,24.20
2019-02-17T20:27:41.414Z,21.43
2019-02-17T20:30:12.083Z,18.40
2019-02-17T20:32:42.381Z,15.43
2019-02-17T20:35:12.878Z,14.87
2019-02-17T20:37:43.501Z,15.00
2019-02-17T20:40:13.957Z,14.03
2019-02-17T20:42:44.327Z,14.03
2019-02-17T20:45:15.973Z,13.63
2019-02-17T20:47:46.464Z,15.93
2019-02-17T20:50:17.823Z,18.37
2019-02-17T20:52:48.310Z,17.83
2019-02-17T20:55:19.198Z,17.80
2019-02-17T20:57:50.281Z,22.60
2019-02-17T21:00:22.873Z,17.42
2019-02-17T21:02:53.341Z,17.23
2019-02-17T21:05:23.707Z,18.23
2019-02-17T21:07:54.072Z,17.93
2019-02-17T21:10:24.432Z,17.70
2019-02-17T21:12:54.769Z,17.33
2019-02-17T21:15:25.347Z,18.50
2019-02-17T21:17:55.758Z,17.10
2019-02-17T21:20:26.114Z,17.40
2019-02-17T21:22:56.455Z,15.73
2019-02-17T21:25:26.792Z,13.50
2019-02-17T21:27:59.615Z,12.10
2019-02-17T21:30:30.057Z,12.57
2019-02-17T21:33:00.452Z,12.87
2019-02-17T21:35:31.579Z,13.03
2019-02-17T21:38:01.910Z,13.20
2019-02-17T21:40:32.307Z,13.67
2019-02-17T21:43:02.634Z,13.40
2019-02-17T21:45:33.283Z,13.63
2019-02-17T21:48:03.663Z,13.53
2019-02-17T21:50:34.219Z,13.07
2019-02-17T21:53:04.711Z,14.20
2019-02-17T21:55:35.888Z,14.87
2019-02-17T21:58:08.800Z,14.50
2019-02-17T22:00:39.171Z,15.37
2019-02-17T22:03:09.718Z,16.13
2019-02-17T22:05:40.297Z,16.00
2019-02-17T22:08:10.738Z,17.23
2019-02-17T22:10:41.133Z,16.77
2019-02-17T22:13:11.602Z,16.10
2019-02-17T22:15:42.061Z,18.30
2019-02-17T22:18:12.388Z,17.70
2019-02-17T22:20:42.730Z,17.40
2019-02-17T22:23:13.053Z,18.63
2019-02-17T22:25:43.419Z,18.27
2019-02-17T22:28:13.843Z,17.67
2019-02-17T22:30:44.448Z,18.13
2019-02-17T22:33:14.901Z,18.73
2019-02-17T22:35:45.263Z,17.80
2019-02-17T22:38:15.678Z,17.23
2019-02-17T22:40:46.207Z,16.73
2019-02-17T22:43:16.769Z,17.13
2019-02-17T22:45:47.266Z,17.90
2019-02-17T22:48:17.672Z,14.50
2019-02-17T22:50:48.168Z,14.20
2019-02-17T22:53:18.619Z,17.97
2019-02-17T22:55:49.149Z,15.87
2019-02-17T22:58:19.494Z,15.97
2019-02-17T23:00:59.604Z,16.73
2019-02-17T23:03:32.514Z,17.33
2019-02-17T23:06:03.675Z,18.33
2019-02-17T23:08:34.093Z,22.20
2019-02-17T23:11:04.498Z,20.97
2019-02-17T23:13:34.960Z,20.03
2019-02-17T23:16:07.510Z,20.60
2019-02-17T23:18:38.038Z,22.80
2019-02-17T23:21:08.679Z,20.70
2019-02-17T23:23:39.041Z,20.20
2019-02-17T23:26:10.574Z,19.80
2019-02-17T23:28:42.350Z,19.73
2019-02-17T23:31:14.061Z,19.67
2019-02-17T23:33:44.415Z,20.20
2019-02-17T23:36:14.776Z,21.03
2019-02-17T23:38:45.113Z,22.33
2019-02-17T23:41:15.689Z,20.27
2019-02-17T23:43:46.060Z,20.67
2019-02-17T23:46:16.981Z,19.23
2019-02-17T23:48:47.290Z,18.30
2019-02-17T23:51:17.744Z,18.20
2019-02-17T23:53:48.425Z,18.57
2019-02-17T23:56:19.008Z,19.52
2019-02-17T23:58:50.001Z,17.93
